createdAt,value
2023-10-13T00:00:09.743Z,100380.78
2023-10-13T00:00:23.773Z,100392.38
2023-10-13T00:00:35.993Z,100386.97
2023-10-13T00:00:47.924Z,100391.53
2023-10-13T00:01:00.119Z,100386.97
2023-10-13T00:01:12.004Z,100382.88
2023-10-13T00:01:24.382Z,100394.25
2023-10-13T00:01:36.578Z,100386.16
2023-10-13T00:01:49.631Z,100391.53
2023-10-13T00:02:03.288Z,100385.56
2023-10-13T00:02:15.590Z,100388.03
2023-10-13T00:02:27.575Z,100386.16
2023-10-13T00:02:39.580Z,100386.16
2023-10-13T00:02:51.371Z,100385.56
2023-10-13T00:03:03.503Z,100388.84
2023-10-13T00:03:15.424Z,100386.16
2023-10-13T00:03:27.195Z,100381.84
2023-10-13T00:03:39.618Z,100390.72
2023-10-13T00:03:52.135Z,100386.41
2023-10-13T00:04:04.413Z,100390.72
2023-10-13T00:04:16.600Z,100385.34
2023-10-13T00:04:28.621Z,100386.16
2023-10-13T00:04:42.889Z,100393.41
2023-10-13T00:04:54.909Z,100381.03
2023-10-13T00:05:07.302Z,100394.25
2023-10-13T00:05:21.879Z,100388.03
2023-10-13T00:05:34.559Z,100388.84
2023-10-13T00:05:46.347Z,100383.47
2023-10-13T00:05:59.172Z,100395.91
2023-10-13T00:06:11.174Z,100387.22
2023-10-13T00:06:22.940Z,100388.84
2023-10-13T00:06:34.951Z,100394.25
2023-10-13T00:06:46.662Z,100391.53
2023-10-13T00:06:58.824Z,100396.94
2023-10-13T00:07:11.371Z,100389.91
2023-10-13T00:07:23.254Z,100394.25
2023-10-13T00:07:35.088Z,100390.72
2023-10-13T00:07:46.930Z,100393.41
2023-10-13T00:07:59.812Z,100392.59
2023-10-13T00:08:12.870Z,100396.13
2023-10-13T00:08:24.597Z,100404.19
2023-10-13T00:08:36.321Z,100396.94
2023-10-13T00:08:48.429Z,100396.13
2023-10-13T00:09:00.295Z,100396.94
2023-10-13T00:09:14.262Z,100406.06
2023-10-13T00:09:27.147Z,100406.06
2023-10-13T00:09:39.005Z,100398.81
2023-10-13T00:09:50.812Z,100393.88
2023-10-13T00:10:02.731Z,100397.97
2023-10-13T00:10:14.542Z,100400.69
2023-10-13T00:10:26.447Z,100407.09
2023-10-13T00:10:41.002Z,100397.16
2023-10-13T00:10:52.928Z,100397.97
2023-10-13T00:11:07.263Z,100405.25
2023-10-13T00:11:18.972Z,100396.31
2023-10-13T00:11:32.346Z,100404.38
2023-10-13T00:11:44.225Z,100407.94
2023-10-13T00:11:57.550Z,100402.56
2023-10-13T00:12:09.850Z,100396.31
2023-10-13T00:12:24.667Z,100407.69
2023-10-13T00:12:38.845Z,100399.00
2023-10-13T00:12:50.822Z,100401.69
2023-10-13T00:13:03.431Z,100400.88
2023-10-13T00:13:15.311Z,100401.69
2023-10-13T00:13:28.553Z,100400.06
2023-10-13T00:13:40.487Z,100405.25
2023-10-13T00:13:52.268Z,100400.88
2023-10-13T00:14:04.525Z,100400.06
2023-10-13T00:14:16.537Z,100405.25
2023-10-13T00:14:28.715Z,100405.44
2023-10-13T00:14:40.553Z,100400.06
2023-10-13T00:14:52.299Z,100400.06
2023-10-13T00:15:04.564Z,100399.25
2023-10-13T00:15:17.226Z,100398.41
2023-10-13T00:15:28.975Z,100404.63
2023-10-13T00:15:41.229Z,100402.75
2023-10-13T00:15:53.286Z,100404.00
2023-10-13T00:16:05.637Z,100407.31
2023-10-13T00:16:17.995Z,100405.44
2023-10-13T00:16:29.894Z,100410.00
2023-10-13T00:16:41.902Z,100409.16
2023-10-13T00:16:53.807Z,100405.44
2023-10-13T00:17:07.252Z,100402.97
2023-10-13T00:17:19.104Z,100402.97
2023-10-13T00:17:30.982Z,100402.75
2023-10-13T00:17:42.806Z,100405.66
2023-10-13T00:17:54.752Z,100408.53
2023-10-13T00:18:06.946Z,100405.03
2023-10-13T00:18:18.680Z,100399.66
2023-10-13T00:18:31.571Z,100406.09
2023-10-13T00:18:43.353Z,100404.22
2023-10-13T00:18:55.194Z,100404.22
2023-10-13T00:19:06.989Z,100406.91
2023-10-13T00:19:24.586Z,100406.09
2023-10-13T00:19:38.072Z,100407.97
2023-10-13T00:19:49.858Z,100405.47
2023-10-13T00:20:01.698Z,100404.44
2023-10-13T00:20:13.447Z,100409.81
2023-10-13T00:20:25.184Z,100407.13
2023-10-13T00:20:36.910Z,100402.78
2023-10-13T00:20:48.635Z,100405.47
2023-10-13T00:21:00.427Z,100404.66
2023-10-13T00:21:12.660Z,100401.13
2023-10-13T00:21:24.873Z,100407.34
2023-10-13T00:21:36.788Z,100401.13
2023-10-13T00:21:48.811Z,100404.66
2023-10-13T00:22:00.628Z,100406.50
2023-10-13T00:22:13.708Z,100401.13
2023-10-13T00:22:25.582Z,100398.69
2023-10-13T00:22:37.437Z,100401.38
2023-10-13T00:22:49.430Z,100397.84
2023-10-13T00:23:01.145Z,100400.53
2023-10-13T00:23:12.952Z,100404.06
2023-10-13T00:23:24.864Z,100407.56
2023-10-13T00:23:36.580Z,100400.53
2023-10-13T00:23:48.317Z,100397.00
2023-10-13T00:24:01.655Z,100398.88
2023-10-13T00:24:13.412Z,100397.84
2023-10-13T00:24:25.173Z,100404.25
2023-10-13T00:24:37.573Z,100399.94
2023-10-13T00:24:49.488Z,100400.97
2023-10-13T00:25:01.298Z,100399.69
2023-10-13T00:25:13.166Z,100406.94
2023-10-13T00:25:24.957Z,100405.31
2023-10-13T00:25:36.753Z,100406.13
2023-10-13T00:25:49.668Z,100406.13
2023-10-13T00:26:01.411Z,100407.16
2023-10-13T00:26:13.110Z,100402.63
2023-10-13T00:26:26.531Z,100405.31
2023-10-13T00:26:39.395Z,100401.78
2023-10-13T00:26:51.333Z,100402.84
2023-10-13T00:27:04.459Z,100403.88
2023-10-13T00:27:17.807Z,100409.03
2023-10-13T00:27:29.595Z,100402.84
2023-10-13T00:27:41.401Z,100406.34
2023-10-13T00:27:53.247Z,100399.31
2023-10-13T00:28:05.784Z,100402.00
2023-10-13T00:28:17.640Z,100405.53
2023-10-13T00:28:30.060Z,100410.91
2023-10-13T00:28:41.892Z,100406.56
2023-10-13T00:28:53.710Z,100406.56
2023-10-13T00:29:05.506Z,100401.19
2023-10-13T00:29:17.228Z,100402.84
2023-10-13T00:29:28.981Z,100413.59
2023-10-13T00:29:40.763Z,100411.94
2023-10-13T00:29:52.671Z,100406.56
2023-10-13T00:30:06.477Z,100407.81
2023-10-13T00:30:19.071Z,100410.28
2023-10-13T00:30:30.997Z,100409.47
2023-10-13T00:30:42.771Z,100414.84
2023-10-13T00:30:55.813Z,100411.34
2023-10-13T00:31:07.677Z,100410.50
2023-10-13T00:31:19.564Z,100410.50
2023-10-13T00:31:31.400Z,100410.50
2023-10-13T00:31:44.892Z,100408.84
2023-10-13T00:31:58.042Z,100413.41
2023-10-13T00:32:10.380Z,100412.38
2023-10-13T00:32:22.940Z,100414.25
2023-10-13T00:32:34.699Z,100405.34
2023-10-13T00:32:47.639Z,100408.25
2023-10-13T00:32:59.800Z,100412.59
2023-10-13T00:33:11.627Z,100405.56
2023-10-13T00:33:23.485Z,100410.72
2023-10-13T00:33:35.291Z,100410.72
2023-10-13T00:33:47.804Z,100408.25
2023-10-13T00:33:59.557Z,100411.75
2023-10-13T00:34:11.654Z,100400.19
2023-10-13T00:34:23.434Z,100398.31
2023-10-13T00:34:35.205Z,100403.91
2023-10-13T00:34:47.031Z,100407.44
2023-10-13T00:34:58.843Z,100405.56
2023-10-13T00:35:10.711Z,100404.75
2023-10-13T00:35:22.506Z,100395.84
2023-10-13T00:35:34.297Z,100405.56
2023-10-13T00:35:46.005Z,100400.19
2023-10-13T00:35:57.752Z,100403.06
2023-10-13T00:36:09.892Z,100400.38
2023-10-13T00:36:21.652Z,100398.53
2023-10-13T00:36:33.525Z,100403.91
2023-10-13T00:36:45.301Z,100405.56
2023-10-13T00:36:57.050Z,100400.19
2023-10-13T00:37:08.802Z,100401.22
2023-10-13T00:37:20.682Z,100399.34
2023-10-13T00:37:32.409Z,100409.06
2023-10-13T00:37:44.885Z,100400.19
2023-10-13T00:37:57.305Z,100401.84
2023-10-13T00:38:09.086Z,100402.66
2023-10-13T00:38:20.902Z,100407.00
2023-10-13T00:38:32.698Z,100411.75
2023-10-13T00:38:44.474Z,100402.66
2023-10-13T00:38:56.361Z,100401.84
2023-10-13T00:39:08.194Z,100408.84
2023-10-13T00:39:20.105Z,100408.84
2023-10-13T00:39:32.104Z,100405.13
2023-10-13T00:39:44.019Z,100400.78
2023-10-13T00:39:55.760Z,100399.34
2023-10-13T00:40:08.903Z,100398.09
2023-10-13T00:40:21.192Z,100398.91
2023-10-13T00:40:33.663Z,100403.28
2023-10-13T00:40:46.274Z,100402.22
2023-10-13T00:40:58.004Z,100399.53
2023-10-13T00:41:09.799Z,100404.09
2023-10-13T00:41:21.517Z,100399.72
2023-10-13T00:41:33.266Z,100396.84
2023-10-13T00:41:45.302Z,100398.72
2023-10-13T00:41:57.032Z,100399.53
2023-10-13T00:42:10.237Z,100396.03
2023-10-13T00:42:21.983Z,100394.97
2023-10-13T00:42:33.719Z,100400.59
2023-10-13T00:42:45.586Z,100396.84
2023-10-13T00:42:57.545Z,100401.59
2023-10-13T00:43:09.654Z,100402.22
2023-10-13T00:43:23.046Z,100402.22
2023-10-13T00:43:46.023Z,100394.16
2023-10-13T00:43:57.792Z,100397.66
2023-10-13T00:44:09.567Z,100395.81
2023-10-13T00:44:21.346Z,100403.88
2023-10-13T00:44:33.203Z,100396.63
2023-10-13T00:44:45.001Z,100405.53
2023-10-13T00:44:56.941Z,100394.16
2023-10-13T00:45:09.105Z,100402.00
2023-10-13T00:45:21.275Z,100403.03
2023-10-13T00:45:35.759Z,100393.13
2023-10-13T00:45:49.605Z,100400.13
2023-10-13T00:46:03.212Z,100393.13
2023-10-13T00:46:15.272Z,100393.13
2023-10-13T00:46:27.133Z,100395.81
2023-10-13T00:46:40.222Z,100393.94
2023-10-13T00:46:52.304Z,100394.75
2023-10-13T00:47:04.801Z,100389.38
2023-10-13T00:47:17.986Z,100394.75
2023-10-13T00:47:29.790Z,100399.09
2023-10-13T00:47:41.617Z,100396.41
2023-10-13T00:47:54.693Z,100386.28
2023-10-13T00:48:07.012Z,100384.81
2023-10-13T00:48:18.855Z,100386.47
2023-10-13T00:48:32.618Z,100384.81
2023-10-13T00:48:45.008Z,100391.88
2023-10-13T00:48:56.765Z,100386.47
2023-10-13T00:49:08.622Z,100383.19
2023-10-13T00:49:20.864Z,100394.31
2023-10-13T00:49:33.321Z,100392.69
2023-10-13T00:49:46.164Z,100387.31
2023-10-13T00:49:58.001Z,100393.50
2023-10-13T00:50:10.439Z,100390.00
2023-10-13T00:50:22.229Z,100390.00
2023-10-13T00:50:34.649Z,100385.63
2023-10-13T00:50:46.382Z,100385.06
2023-10-13T00:50:58.714Z,100382.94
2023-10-13T00:51:12.660Z,100387.50
2023-10-13T00:51:24.529Z,100387.50
2023-10-13T00:51:36.851Z,100387.75
2023-10-13T00:51:48.857Z,100387.75
2023-10-13T00:52:00.650Z,100383.38
2023-10-13T00:52:12.566Z,100386.69
2023-10-13T00:52:25.463Z,100389.38
2023-10-13T00:52:38.726Z,100393.13
2023-10-13T00:52:51.058Z,100393.94
2023-10-13T00:53:02.969Z,100390.44
2023-10-13T00:53:14.686Z,100395.81
2023-10-13T00:53:26.903Z,100386.09
2023-10-13T00:53:39.690Z,100392.28
2023-10-13T00:53:51.670Z,100392.28
2023-10-13T00:54:05.399Z,100388.97
2023-10-13T00:54:18.973Z,100395.81
2023-10-13T00:54:31.586Z,100386.09
2023-10-13T00:54:45.670Z,100397.66
2023-10-13T00:54:58.016Z,100386.09
2023-10-13T00:55:10.928Z,100390.84
2023-10-13T00:55:24.038Z,100393.34
2023-10-13T00:55:36.144Z,100391.66
2023-10-13T00:55:47.917Z,100393.34
2023-10-13T00:55:59.777Z,100396.03
2023-10-13T00:56:11.960Z,100389.81
2023-10-13T00:56:26.796Z,100388.16
2023-10-13T00:56:40.209Z,100387.94
2023-10-13T00:56:52.055Z,100392.28
2023-10-13T00:57:04.853Z,100387.94
2023-10-13T00:57:18.186Z,100390.63
2023-10-13T00:57:30.068Z,100389.22
2023-10-13T00:57:42.511Z,100387.13
2023-10-13T00:57:56.746Z,100397.03
2023-10-13T00:58:09.518Z,100391.66
2023-10-13T00:58:22.637Z,100394.34
2023-10-13T00:58:35.101Z,100392.72
2023-10-13T00:58:47.310Z,100396.84
2023-10-13T00:59:00.750Z,100386.53
2023-10-13T00:59:13.481Z,100391.66
2023-10-13T00:59:25.428Z,100395.19
2023-10-13T00:59:37.573Z,100389.22
2023-10-13T00:59:50.528Z,100393.53
2023-10-13T01:00:02.476Z,100395.63
2023-10-13T01:00:14.502Z,100397.28
2023-10-13T01:00:26.252Z,100396.22
2023-10-13T01:00:38.115Z,100393.78
2023-10-13T01:00:50.974Z,100393.53
2023-10-13T01:01:04.489Z,100392.72
2023-10-13T01:01:16.360Z,100392.94
2023-10-13T01:01:28.317Z,100390.03
2023-10-13T01:01:40.273Z,100392.94
2023-10-13T01:01:52.228Z,100389.22
2023-10-13T01:02:04.091Z,100385.72
2023-10-13T01:02:16.047Z,100381.34
2023-10-13T01:02:28.080Z,100387.53
2023-10-13T01:02:39.881Z,100391.91
2023-10-13T01:02:54.081Z,100391.91
2023-10-13T01:03:05.897Z,100391.28
2023-10-13T01:03:17.621Z,100391.09
2023-10-13T01:03:29.417Z,100384.84
2023-10-13T01:03:41.190Z,100389.22
2023-10-13T01:03:54.271Z,100387.34
2023-10-13T01:04:06.361Z,100386.53
2023-10-13T01:04:18.468Z,100386.53
2023-10-13T01:04:30.406Z,100390.25
2023-10-13T01:04:42.709Z,100392.94
2023-10-13T01:04:54.731Z,100389.41
2023-10-13T01:05:08.335Z,100383.22
2023-10-13T01:05:20.340Z,100389.41
2023-10-13T01:05:32.499Z,100380.53
2023-10-13T01:05:44.408Z,100388.59
2023-10-13T01:05:57.930Z,100383.22
2023-10-13T01:06:10.165Z,100383.22
2023-10-13T01:06:23.033Z,100384.25
2023-10-13T01:06:35.010Z,100387.78
2023-10-13T01:06:46.801Z,100382.41
2023-10-13T01:06:58.566Z,100389.63
2023-10-13T01:07:10.350Z,100388.00
2023-10-13T01:07:22.209Z,100383.44
2023-10-13T01:07:34.024Z,100382.41
2023-10-13T01:07:45.804Z,100382.41
2023-10-13T01:08:01.551Z,100383.44
2023-10-13T01:08:13.230Z,100387.78
2023-10-13T01:08:34.525Z,100391.72
2023-10-13T01:08:47.611Z,100388.00
2023-10-13T01:09:01.104Z,100393.38
2023-10-13T01:09:12.945Z,100389.84
2023-10-13T01:09:24.687Z,100385.28
2023-10-13T01:09:41.755Z,100390.69
2023-10-13T01:09:53.563Z,100388.00
2023-10-13T01:10:10.333Z,100390.69
2023-10-13T01:10:22.650Z,100391.50
2023-10-13T01:10:34.448Z,100396.06
2023-10-13T01:10:46.221Z,100391.50
2023-10-13T01:10:57.993Z,100384.06
2023-10-13T01:11:09.717Z,100388.00
2023-10-13T01:11:21.501Z,100396.06
2023-10-13T01:11:33.510Z,100388.00
2023-10-13T01:11:46.958Z,100389.03
2023-10-13T01:11:58.696Z,100388.19
2023-10-13T01:12:10.411Z,100383.88
2023-10-13T01:12:23.641Z,100389.25
2023-10-13T01:12:35.373Z,100390.06
2023-10-13T01:12:47.300Z,100388.44
2023-10-13T01:12:59.442Z,100387.59
2023-10-13T01:13:11.201Z,100385.13
2023-10-13T01:13:22.902Z,100385.94
2023-10-13T01:13:35.132Z,100394.84
2023-10-13T01:13:47.172Z,100399.19
2023-10-13T01:13:58.891Z,100385.94
2023-10-13T01:14:10.715Z,100390.50
2023-10-13T01:14:23.307Z,100392.13
2023-10-13T01:14:35.279Z,100394.00
2023-10-13T01:14:47.116Z,100394.84
2023-10-13T01:14:59.033Z,100396.69
2023-10-13T01:15:10.873Z,100391.31
2023-10-13T01:15:22.590Z,100388.63
2023-10-13T01:15:34.413Z,100393.41
2023-10-13T01:15:46.257Z,100391.53
2023-10-13T01:15:58.145Z,100390.72
2023-10-13T01:16:09.956Z,100395.88
2023-10-13T01:16:21.932Z,100393.19
2023-10-13T01:16:33.812Z,100390.50
2023-10-13T01:16:46.415Z,100381.59
2023-10-13T01:16:58.244Z,100386.97
2023-10-13T01:17:10.073Z,100382.63
2023-10-13T01:17:21.864Z,100386.16
2023-10-13T01:17:33.703Z,100382.63
2023-10-13T01:17:46.946Z,100386.38
2023-10-13T01:18:07.957Z,100394.22
2023-10-13T01:18:19.744Z,100382.63
2023-10-13T01:18:31.492Z,100386.16
2023-10-13T01:18:43.184Z,100380.78
2023-10-13T01:18:55.134Z,100384.28
2023-10-13T01:19:07.169Z,100384.50
2023-10-13T01:19:20.724Z,100386.16
2023-10-13T01:19:37.321Z,100383.69
2023-10-13T01:19:49.124Z,100385.34
2023-10-13T01:20:00.909Z,100391.53
2023-10-13T01:20:12.740Z,100379.13
2023-10-13T01:20:24.664Z,100383.91
2023-10-13T01:20:36.462Z,100385.34
2023-10-13T01:20:48.325Z,100382.63
2023-10-13T01:21:00.152Z,100384.50
2023-10-13T01:21:11.941Z,100384.50
2023-10-13T01:21:23.712Z,100389.91
2023-10-13T01:21:35.445Z,100386.38
2023-10-13T01:21:48.848Z,100387.41
2023-10-13T01:22:00.853Z,100378.31
2023-10-13T01:22:12.867Z,100387.41
2023-10-13T01:22:24.712Z,100389.06
2023-10-13T01:22:36.606Z,100383.09
2023-10-13T01:22:48.522Z,100383.09
2023-10-13T01:23:00.275Z,100389.91
2023-10-13T01:23:14.019Z,100384.72
2023-10-13T01:23:26.812Z,100376.84
2023-10-13T01:23:38.588Z,100392.78
2023-10-13T01:23:50.309Z,100388.66
2023-10-13T01:24:02.545Z,100383.91
2023-10-13T01:24:14.964Z,100390.31
2023-10-13T01:24:27.312Z,100390.31
2023-10-13T01:24:39.289Z,100389.47
2023-10-13T01:24:51.016Z,100390.31
2023-10-13T01:25:02.770Z,100391.16
2023-10-13T01:25:15.093Z,100391.97
2023-10-13T01:25:26.981Z,100390.31
2023-10-13T01:25:38.790Z,100390.31
2023-10-13T01:25:50.539Z,100391.16
2023-10-13T01:26:02.276Z,100388.06
2023-10-13T01:26:14.113Z,100387.84
2023-10-13T01:26:25.833Z,100384.91
2023-10-13T01:26:37.579Z,100390.31
2023-10-13T01:26:49.353Z,100389.47
2023-10-13T01:27:01.186Z,100390.31
2023-10-13T01:27:13.274Z,100387.63
2023-10-13T01:27:24.997Z,100391.97
2023-10-13T01:27:37.728Z,100391.97
2023-10-13T01:27:49.465Z,100391.97
2023-10-13T01:28:01.160Z,100392.16
2023-10-13T01:28:13.254Z,100390.31
2023-10-13T01:28:25.053Z,100390.31
2023-10-13T01:28:36.970Z,100393.84
2023-10-13T01:28:49.067Z,100389.28
2023-10-13T01:29:00.808Z,100394.66
2023-10-13T01:29:12.575Z,100394.66
2023-10-13T01:29:24.492Z,100392.78
2023-10-13T01:29:36.231Z,100395.28
2023-10-13T01:29:48.918Z,100396.53
2023-10-13T01:30:00.675Z,100388.22
2023-10-13T01:30:13.310Z,100387.41
2023-10-13T01:30:25.016Z,100396.28
2023-10-13T01:30:37.574Z,100385.78
2023-10-13T01:30:49.426Z,100391.97
2023-10-13T01:31:01.171Z,100397.97
2023-10-13T01:31:13.307Z,100390.91
2023-10-13T01:31:25.312Z,100393.59
2023-10-13T01:31:37.284Z,100390.91
2023-10-13T01:31:49.343Z,100392.59
2023-10-13T01:32:01.183Z,100388.22
2023-10-13T01:32:13.092Z,100388.22
2023-10-13T01:32:25.218Z,100386.38
2023-10-13T01:32:37.540Z,100389.28
2023-10-13T01:32:49.584Z,100389.06
2023-10-13T01:33:02.510Z,100394.44
2023-10-13T01:33:14.407Z,100394.44
2023-10-13T01:33:26.262Z,100386.38
2023-10-13T01:33:38.182Z,100386.38
2023-10-13T01:33:50.098Z,100378.31
2023-10-13T01:34:02.024Z,100386.59
2023-10-13T01:34:15.053Z,100382.84
2023-10-13T01:34:26.848Z,100389.06
2023-10-13T01:34:38.677Z,100389.91
2023-10-13T01:34:50.748Z,100381.81
2023-10-13T01:35:02.465Z,100379.53
2023-10-13T01:35:14.252Z,100387.22
2023-10-13T01:35:26.176Z,100379.34
2023-10-13T01:35:38.663Z,100382.03
2023-10-13T01:35:50.373Z,100376.03
2023-10-13T01:36:02.173Z,100383.69
2023-10-13T01:36:13.918Z,100382.03
2023-10-13T01:36:27.211Z,100382.03
2023-10-13T01:36:38.935Z,100383.69
2023-10-13T01:36:51.366Z,100381.00
2023-10-13T01:37:03.101Z,100374.78
2023-10-13T01:37:15.492Z,100383.69
2023-10-13T01:37:27.335Z,100381.00
2023-10-13T01:37:39.154Z,100384.72
2023-10-13T01:37:50.980Z,100384.50
2023-10-13T01:38:02.795Z,100376.66
2023-10-13T01:38:16.288Z,100377.47
2023-10-13T01:38:28.037Z,100374.78
2023-10-13T01:38:39.791Z,100377.47
2023-10-13T01:38:51.618Z,100379.13
2023-10-13T01:39:04.408Z,100380.16
2023-10-13T01:39:16.095Z,100379.53
2023-10-13T01:39:27.799Z,100380.16
2023-10-13T01:39:39.565Z,100377.25
2023-10-13T01:39:51.738Z,100374.78
2023-10-13T01:40:03.662Z,100386.38
2023-10-13T01:40:15.691Z,100377.47
2023-10-13T01:40:27.523Z,100382.84
2023-10-13T01:40:39.278Z,100374.78
2023-10-13T01:40:50.980Z,100374.78
2023-10-13T01:41:06.304Z,100378.53
2023-10-13T01:41:19.657Z,100382.03
2023-10-13T01:41:31.378Z,100378.53
2023-10-13T01:41:43.204Z,100382.84
2023-10-13T01:41:55.251Z,100372.31
2023-10-13T01:42:07.013Z,100379.53
2023-10-13T01:42:19.040Z,100375.03
2023-10-13T01:42:31.800Z,100380.16
2023-10-13T01:42:43.582Z,100382.84
2023-10-13T01:42:55.554Z,100376.84
2023-10-13T01:43:07.325Z,100375.84
2023-10-13T01:43:19.800Z,100375.84
2023-10-13T01:43:31.636Z,100375.84
2023-10-13T01:43:43.482Z,100375.03
2023-10-13T01:43:55.234Z,100379.34
2023-10-13T01:44:07.220Z,100376.66
2023-10-13T01:44:19.015Z,100372.31
2023-10-13T01:44:30.728Z,100372.53
2023-10-13T01:44:42.653Z,100375.63
2023-10-13T01:44:54.423Z,100376.66
2023-10-13T01:45:07.298Z,100375.84
2023-10-13T01:45:21.921Z,100375.84
2023-10-13T01:45:34.074Z,100373.97
2023-10-13T01:45:45.863Z,100382.03
2023-10-13T01:45:57.750Z,100374.16
2023-10-13T01:46:10.857Z,100371.28
2023-10-13T01:46:22.824Z,100373.16
2023-10-13T01:46:34.711Z,100374.78
2023-10-13T01:46:46.804Z,100377.72
2023-10-13T01:46:58.610Z,100372.53
2023-10-13T01:47:10.371Z,100376.66
2023-10-13T01:47:22.133Z,100381.22
2023-10-13T01:47:33.970Z,100377.72
2023-10-13T01:47:47.694Z,100383.09
2023-10-13T01:47:59.760Z,100375.03
2023-10-13T01:48:11.579Z,100382.03
2023-10-13T01:48:23.468Z,100379.53
2023-10-13T01:48:35.189Z,100378.53
2023-10-13T01:48:46.923Z,100383.91
2023-10-13T01:48:58.724Z,100382.03
2023-10-13T01:49:10.448Z,100386.59
2023-10-13T01:49:29.666Z,100382.03
2023-10-13T01:49:41.578Z,100386.59
2023-10-13T01:49:53.342Z,100391.97
2023-10-13T01:50:06.508Z,100382.47
2023-10-13T01:50:18.940Z,100379.53
2023-10-13T01:50:30.708Z,100388.47
2023-10-13T01:50:42.545Z,100387.63
2023-10-13T01:50:57.635Z,100390.31
2023-10-13T01:51:09.506Z,100389.28
2023-10-13T01:51:21.259Z,100385.38
2023-10-13T01:51:33.053Z,100390.31
2023-10-13T01:51:44.874Z,100394.03
2023-10-13T01:51:56.592Z,100388.66
2023-10-13T01:52:08.457Z,100384.09
2023-10-13T01:52:20.188Z,100391.34
2023-10-13T01:52:31.964Z,100395.09
2023-10-13T01:52:43.699Z,100400.47
2023-10-13T01:52:55.627Z,100395.09
2023-10-13T01:53:07.441Z,100402.31
2023-10-13T01:53:20.546Z,100404.81
2023-10-13T01:53:32.462Z,100397.78
2023-10-13T01:53:44.227Z,100403.97
2023-10-13T01:53:56.055Z,100405.84
2023-10-13T01:54:07.794Z,100404.19
2023-10-13T01:54:19.565Z,100399.63
2023-10-13T01:54:31.317Z,100402.31
2023-10-13T01:54:43.066Z,100402.31
2023-10-13T01:54:54.807Z,100402.31
2023-10-13T01:55:07.268Z,100393.63
2023-10-13T01:55:19.121Z,100398.19
2023-10-13T01:55:31.034Z,100399.88
2023-10-13T01:55:42.760Z,100399.88
2023-10-13T01:55:54.586Z,100406.88
2023-10-13T01:56:07.241Z,100399.25
2023-10-13T01:56:18.962Z,100406.06
2023-10-13T01:56:30.754Z,100407.09
2023-10-13T01:56:42.789Z,100400.06
2023-10-13T01:56:54.552Z,100402.56
2023-10-13T01:57:06.356Z,100402.56
2023-10-13T01:57:18.249Z,100407.94
2023-10-13T01:57:29.934Z,100403.56
2023-10-13T01:57:41.757Z,100399.25
2023-10-13T01:57:53.585Z,100401.69
2023-10-13T01:58:06.588Z,100407.09
2023-10-13T01:58:20.237Z,100403.56
2023-10-13T01:58:33.098Z,100403.56
2023-10-13T01:58:44.913Z,100416.00
2023-10-13T01:58:57.253Z,100402.75
2023-10-13T01:59:09.122Z,100398.44
2023-10-13T01:59:21.197Z,100401.94
2023-10-13T01:59:33.153Z,100401.94
2023-10-13T01:59:45.096Z,100414.56
2023-10-13T01:59:57.010Z,100404.63
2023-10-13T02:00:10.097Z,100408.34
2023-10-13T02:00:23.969Z,100405.66
2023-10-13T02:00:35.748Z,100396.56
2023-10-13T02:00:47.727Z,100398.44
2023-10-13T02:00:59.529Z,100400.28
2023-10-13T02:01:11.455Z,100400.28
2023-10-13T02:01:23.446Z,100407.53
2023-10-13T02:01:35.393Z,100401.94
2023-10-13T02:01:47.310Z,100404.84
2023-10-13T02:01:59.347Z,100402.13
2023-10-13T02:02:11.363Z,100402.97
2023-10-13T02:02:23.334Z,100396.97
2023-10-13T02:02:35.273Z,100399.66
2023-10-13T02:02:47.283Z,100395.94
2023-10-13T02:02:59.098Z,100404.00
2023-10-13T02:03:12.791Z,100399.44
2023-10-13T02:03:24.641Z,100406.50
2023-10-13T02:03:36.822Z,100394.06
2023-10-13T02:03:48.598Z,100397.81
2023-10-13T02:04:00.454Z,100392.44
2023-10-13T02:04:12.393Z,100394.91
2023-10-13T02:04:24.746Z,100402.97
2023-10-13T02:04:36.526Z,100392.19
2023-10-13T02:04:48.451Z,100396.75
2023-10-13T02:05:00.229Z,100394.91
2023-10-13T02:05:12.035Z,100386.00
2023-10-13T02:05:23.920Z,100395.75
2023-10-13T02:05:36.496Z,100387.88
2023-10-13T02:05:49.492Z,100387.69
2023-10-13T02:06:01.326Z,100389.75
2023-10-13T02:06:13.246Z,100387.88
2023-10-13T02:06:25.140Z,100390.56
2023-10-13T02:06:38.287Z,100390.38
2023-10-13T02:06:50.060Z,100388.69
2023-10-13T02:07:01.814Z,100388.69
2023-10-13T02:07:13.562Z,100389.75
2023-10-13T02:07:25.478Z,100396.75
2023-10-13T02:07:37.771Z,100387.69
2023-10-13T02:07:49.573Z,100388.91
2023-10-13T02:08:01.329Z,100392.19
2023-10-13T02:08:13.050Z,100394.91
2023-10-13T02:08:26.426Z,100390.38
2023-10-13T02:08:38.894Z,100387.69
2023-10-13T02:08:51.044Z,100384.38
2023-10-13T02:09:04.685Z,100389.50
2023-10-13T02:09:17.359Z,100393.06
2023-10-13T02:09:29.235Z,100394.91
2023-10-13T02:09:41.011Z,100391.19
2023-10-13T02:09:52.789Z,100385.81
2023-10-13T02:10:05.190Z,100387.44
2023-10-13T02:10:16.954Z,100387.44
2023-10-13T02:10:28.786Z,100390.38
2023-10-13T02:10:40.586Z,100387.44
2023-10-13T02:10:53.164Z,100386.63
2023-10-13T02:11:04.923Z,100388.50
2023-10-13T02:11:16.687Z,100394.47
2023-10-13T02:11:28.457Z,100389.94
2023-10-13T02:11:40.864Z,100388.25
2023-10-13T02:11:53.614Z,100390.75
2023-10-13T02:12:05.817Z,100391.78
2023-10-13T02:12:17.593Z,100389.72
2023-10-13T02:12:29.680Z,100387.03
2023-10-13T02:12:41.445Z,100395.91
2023-10-13T02:12:53.170Z,100387.03
2023-10-13T02:13:04.901Z,100393.22
2023-10-13T02:13:17.660Z,100397.78
2023-10-13T02:13:29.598Z,100393.22
2023-10-13T02:13:41.453Z,100391.34
2023-10-13T02:13:53.334Z,100395.09
2023-10-13T02:14:05.200Z,100398.38
2023-10-13T02:14:16.952Z,100395.69
2023-10-13T02:14:28.805Z,100396.53
2023-10-13T02:14:40.598Z,100391.97
2023-10-13T02:14:52.310Z,100391.97
2023-10-13T02:15:04.251Z,100393.84
2023-10-13T02:15:15.943Z,100400.84
2023-10-13T02:15:27.890Z,100396.28
2023-10-13T02:15:39.780Z,100397.16
2023-10-13T02:15:55.197Z,100394.44
2023-10-13T02:16:07.025Z,100393.41
2023-10-13T02:16:18.821Z,100401.47
2023-10-13T02:16:30.644Z,100396.09
2023-10-13T02:16:43.131Z,100400.41
2023-10-13T02:16:54.908Z,100400.41
2023-10-13T02:17:06.680Z,100395.28
2023-10-13T02:17:18.542Z,100396.91
2023-10-13T02:17:30.501Z,100400.41
2023-10-13T02:17:42.292Z,100398.56
2023-10-13T02:17:54.849Z,100399.59
2023-10-13T02:18:06.722Z,100394.00
2023-10-13T02:18:19.966Z,100398.56
2023-10-13T02:18:31.757Z,100399.41
2023-10-13T02:18:43.454Z,100396.69
2023-10-13T02:18:55.247Z,100396.69
2023-10-13T02:19:07.035Z,100392.13
2023-10-13T02:19:18.873Z,100394.84
2023-10-13T02:19:30.777Z,100391.31
2023-10-13T02:19:43.087Z,100394.84
2023-10-13T02:19:54.946Z,100393.19